Time;durP1;ratioP1;P1;durP2;ratioP2;P2;SDS_P1;SDS_P2;PMS_P1;PMS_P2;Temp;Humidity;BMP_temperature;BMP_pressure;BME280_temperature;BME280_humidity;BME280_pressure;Samples;Min_cycle;Max_cycle;Signal;HPM_P1;HPM_P2
2022/04/21 00:42:22;;;;;;;;;;;;;;;16.68;65.01;100883.88;4713917;27;10001762;-58
2022/04/21 00:44:50;;;;;;;;;;;;;;;16.70;65.92;100906.81;4968718;28;1506;-57
2022/04/21 00:47:17;;;;;;;;;;;;;;;16.81;65.47;100891.78;4957913;28;1583;-58
2022/04/21 00:50:30;;;;;;;;;;;;;;;17.41;64.35;100884.47;5120972;27;1849;-35
2022/04/21 00:56:14;;;;;;;;;;;;;;;18.15;62.16;100873.16;5002764;27;11676;-35
2022/04/21 01:15:43;;;;;;;;;;;;;;;18.55;61.46;100885.88;5149387;27;1339;-38
2022/04/21 01:19:25;;;;;;;;;;;;;;;18.44;60.83;100901.03;5137631;27;1646;-38
2022/04/21 01:21:53;;;;;;;;;;;;;;;18.46;61.59;100899.09;5108116;28;1467;-38
2022/04/21 01:24:20;;;;;;;;;;;;;;;18.51;62.00;100896.00;5051061;28;12933;-37
2022/04/21 01:26:46;;;;;;;;;;;;;;;18.68;61.18;100898.13;5087363;28;1437;-37
2022/04/21 01:29:13;;;;;;;;;;;;;;;18.88;60.51;100883.03;5086723;28;1916;-38
2022/04/21 01:31:39;;;;;;;;;;;;;;;19.03;59.95;100883.53;5084381;28;1710;-38
2022/04/21 01:34:06;;;;;;;;;;;;;;;19.10;59.39;100886.56;5041212;28;11886;-38
2022/04/21 01:36:32;;;;;;;;;;;;;;;18.88;59.99;100883.03;5090524;28;1567;-38
2022/04/21 01:41:49;;;;;;;;;;;;;;;18.69;61.35;100898.97;5044884;28;1480;-37
2022/04/21 01:44:16;;;;;;;;;;;;;;;18.87;60.15;100880.50;5048961;27;10962;-38
2022/04/21 01:46:42;;;;;;;;;;;;;;;18.88;60.28;100895.59;5060751;28;1855;-38
2022/04/21 01:49:09;;;;;;;;;;;;;;;18.93;60.58;100890.69;5058828;28;1869;-38
2022/04/21 01:51:35;;;;;;;;;;;;;;;18.93;59.75;100885.31;5055280;28;1743;-38
2022/04/21 01:54:03;;;;;;;;;;;;;;;19.06;60.82;100891.31;5060900;28;1762;-38
2022/04/21 01:56:29;;;;;;;;;;;;;;;18.95;60.27;100877.16;5060822;28;1810;-38
2022/04/21 01:58:56;;;;;;;;;;;;;;;18.87;60.13;100883.16;5053399;28;1987;-38
2022/04/21 02:01:22;;;;;;;;;;;;;;;18.87;61.18;100880.50;5085293;22;3601;-59
2022/04/21 02:03:49;;;;;;;;;;;;;;;18.80;60.47;100869.47;5029913;28;1342;-55
2022/04/21 02:06:15;;;;;;;;;;;;;;;18.80;60.73;100868.59;5031503;28;1409;-59
2022/04/21 02:08:42;;;;;;;;;;;;;;;19.01;60.91;100881.97;5025420;28;1653;-55
2022/04/21 02:11:10;;;;;;;;;;;;;;;18.91;59.85;100881.91;5013466;28;990;-55
2022/04/21 02:13:36;;;;;;;;;;;;;;;18.85;60.22;100887.81;5023138;28;1517;-59
2022/04/21 02:16:03;;;;;;;;;;;;;;;18.80;60.58;100876.63;5020962;28;1725;-59
2022/04/21 02:18:29;;;;;;;;;;;;;;;18.97;60.30;100894.78;5020658;28;1989;-55
2022/04/21 02:20:56;;;;;;;;;;;;;;;18.88;61.01;100892.94;5014999;28;1394;-55
2022/04/21 02:23:23;;;;;;;;;;;;;;;18.86;61.00;100882.31;5019785;28;1008;-55
2022/04/21 02:25:49;;;;;;;;;;;;;;;19.03;60.19;100880.84;5019622;28;1715;-57
2022/04/21 02:28:17;;;;;;;;;;;;;;;18.94;61.11;100887.03;5026715;28;1536;-55
2022/04/21 02:30:44;;;;;;;;;;;;;;;18.90;61.16;100893.63;5008083;28;1730;-59
2022/04/21 02:33:10;;;;;;;;;;;;;;;18.94;60.46;100899.56;5009369;28;1399;-55
2022/04/21 02:35:37;;;;;;;;;;;;;;;18.85;61.45;100899.38;5000445;28;1035;-59
2022/04/21 02:38:03;;;;;;;;;;;;;;;19.10;60.17;100897.28;5004885;28;1902;-56
2022/04/21 02:40:30;;;;;;;;;;;;;;;18.99;60.99;100895.50;5005839;28;1953;-59
2022/04/21 02:42:57;;;;;;;;;;;;;;;18.89;60.42;100883.88;5011051;28;1645;-55
2022/04/21 02:45:25;;;;;;;;;;;;;;;19.13;60.62;100901.50;5007313;28;1594;-58
2022/04/21 02:47:52;;;;;;;;;;;;;;;19.08;60.66;100893.88;5010199;28;1554;-59
2022/04/21 02:50:19;;;;;;;;;;;;;;;18.95;59.70;100888.72;5008790;28;1073;-55
2022/04/21 02:52:46;;;;;;;;;;;;;;;18.87;61.33;100908.13;5011448;28;1720;-59
2022/04/21 02:57:58;;;;;;;;;;;;;;;18.97;59.85;100902.84;5006605;28;1981;-56
2022/04/21 03:00:26;;;;;;;;;;;;;;;18.94;60.34;100910.28;5007343;28;1452;-55
2022/04/21 03:02:52;;;;;;;;;;;;;;;18.96;59.80;100906.50;5012568;28;1519;-55
2022/04/21 03:05:19;;;;;;;;;;;;;;;19.05;60.19;100897.66;5017029;28;1003;-59
2022/04/21 03:07:45;;;;;;;;;;;;;;;18.99;61.09;100919.63;5010572;28;1744;-59
2022/04/21 03:10:12;;;;;;;;;;;;;;;18.88;61.31;100915.19;5006647;28;1570;-60
2022/04/21 03:12:38;;;;;;;;;;;;;;;18.83;60.42;100914.72;5006716;28;1574;-56
2022/04/21 03:15:06;;;;;;;;;;;;;;;18.92;61.14;100929.19;5007086;28;1210;-55
2022/04/21 03:17:34;;;;;;;;;;;;;;;19.03;60.15;100929.09;5008607;28;1906;-56
2022/04/21 03:20:01;;;;;;;;;;;;;;;18.94;60.32;100918.31;5004441;28;1048;-56
2022/04/21 03:25:11;;;;;;;;;;;;;;;19.08;60.63;100915.31;5003123;28;1402;-59
2022/04/21 03:27:38;;;;;;;;;;;;;;;19.00;59.65;100910.63;5008146;28;1641;-55
2022/04/21 03:30:06;;;;;;;;;;;;;;;18.95;59.95;100923.56;5005775;28;1602;-55
2022/04/21 03:32:34;;;;;;;;;;;;;;;18.99;61.01;100906.22;5004354;28;1483;-55
2022/04/21 03:35:01;;;;;;;;;;;;;;;18.99;60.99;100908.91;5004125;28;995;-59
2022/04/21 03:37:28;;;;;;;;;;;;;;;18.98;60.29;100899.19;5004642;28;1610;-59
2022/04/21 03:39:54;;;;;;;;;;;;;;;19.03;60.89;100906.81;5005196;28;1902;-55
2022/04/21 03:42:23;;;;;;;;;;;;;;;19.11;60.44;100895.44;5007856;28;1586;-59
2022/04/21 03:44:50;;;;;;;;;;;;;;;19.14;60.23;100908.56;5006393;28;1394;-55
2022/04/21 03:47:16;;;;;;;;;;;;;;;19.03;60.35;100902.28;5006405;28;1218;-59
2022/04/21 03:49:45;;;;;;;;;;;;;;;19.13;60.33;100907.72;5005256;28;1071;-58
2022/04/21 03:52:11;;;;;;;;;;;;;;;19.03;60.16;100896.94;5009989;28;1827;-59
2022/04/21 03:54:38;;;;;;;;;;;;;;;19.21;60.20;100912.41;5005797;28;1705;-54
2022/04/21 03:57:05;;;;;;;;;;;;;;;19.04;60.23;100906.69;5008381;28;1339;-59
2022/04/21 03:59:31;;;;;;;;;;;;;;;19.05;59.37;100892.28;5003646;28;1906;-59
2022/04/21 04:02:02;;;;;;;;;;;;;;;19.13;59.60;100904.19;5008916;28;1570;-59
2022/04/21 04:04:28;;;;;;;;;;;;;;;19.15;60.21;100894.19;5004742;28;1067;-56
2022/04/21 04:12:30;;;;;;;;;;;;;;;19.26;60.20;100913.72;5005350;28;1633;-59
2022/04/21 04:14:56;;;;;;;;;;;;;;;19.32;58.69;100916.84;5009250;28;1563;-59
2022/04/21 04:17:22;;;;;;;;;;;;;;;19.34;58.41;100918.41;5007891;28;1453;-59
2022/04/21 04:19:49;;;;;;;;;;;;;;;19.56;58.38;100900.44;5007182;28;1910;-59
2022/04/21 04:22:17;;;;;;;;;;;;;;;20.10;56.79;100896.50;5009296;28;1796;-55
2022/04/21 04:24:44;;;;;;;;;;;;;;;20.40;56.66;100897.34;5004996;28;1515;-59
2022/04/21 04:27:11;;;;;;;;;;;;;;;20.29;56.12;100890.28;5005012;28;1578;-59
2022/04/21 04:29:37;;;;;;;;;;;;;;;20.24;56.93;100898.75;5009011;28;1519;-56
2022/04/21 04:32:04;;;;;;;;;;;;;;;20.02;56.36;100905.25;5004012;28;1590;-55
2022/04/21 04:34:31;;;;;;;;;;;;;;;19.83;57.58;100916.78;5004243;28;1028;-59
2022/04/21 04:36:57;;;;;;;;;;;;;;;19.60;58.02;100945.63;4999755;28;1753;-55
2022/04/21 04:39:25;;;;;;;;;;;;;;;19.30;59.98;100914.31;5007864;28;1975;-59
2022/04/21 04:44:36;;;;;;;;;;;;;;;19.38;59.68;100911.81;5008514;28;1379;-55
2022/04/21 04:47:01;;;;;;;;;;;;;;;19.41;59.15;100906.16;5007890;28;1518;-55
2022/04/21 04:49:28;;;;;;;;;;;;;;;19.34;59.14;100921.09;5009330;28;1487;-58
2022/04/21 04:51:54;;;;;;;;;;;;;;;19.30;60.16;100913.44;5011941;28;1792;-55
2022/04/21 04:54:21;;;;;;;;;;;;;;;19.40;59.97;100906.31;4988775;28;12837;-55
2022/04/21 04:56:49;;;;;;;;;;;;;;;19.52;59.80;100925.81;5004454;28;1626;-60
2022/04/21 04:59:16;;;;;;;;;;;;;;;19.53;58.48;100935.56;5009500;28;1898;-60
2022/04/21 05:01:43;;;;;;;;;;;;;;;19.62;59.87;100907.94;5004950;28;1468;-55
2022/04/21 05:04:10;;;;;;;;;;;;;;;19.53;60.06;100940.94;5004674;28;1048;-59
2022/04/21 05:06:38;;;;;;;;;;;;;;;19.42;59.84;100915.91;4881853;28;12978;-61
2022/04/21 05:09:05;;;;;;;;;;;;;;;19.38;59.16;100922.53;5007122;28;1665;-59
2022/04/21 05:11:31;;;;;;;;;;;;;;;19.48;59.39;100907.31;5005704;28;1610;-59
2022/04/21 05:13:59;;;;;;;;;;;;;;;19.47;60.04;100916.34;5008341;28;1530;-60
2022/04/21 05:16:26;;;;;;;;;;;;;;;19.64;59.70;100898.75;4978101;28;11347;-60
2022/04/21 05:18:53;;;;;;;;;;;;;;;19.21;60.68;100918.63;5002491;28;1906;-55
2022/04/21 05:21:20;;;;;;;;;;;;;;;18.92;61.11;100905.06;4997408;28;1722;-61
2022/04/21 05:23:47;;;;;;;;;;;;;;;18.89;60.35;100910.69;5008166;28;1494;-62
2022/04/21 05:26:15;;;;;;;;;;;;;;;18.88;60.25;100914.34;5005109;28;1470;-54
2022/04/21 05:28:42;;;;;;;;;;;;;;;18.78;61.52;100918.75;5007230;28;1441;-59
2022/04/21 05:31:09;;;;;;;;;;;;;;;19.02;60.42;100922.06;5001459;28;1729;-52
2022/04/21 05:33:37;;;;;;;;;;;;;;;19.67;60.52;100919.09;5009102;28;1459;-53
2022/04/21 05:36:05;;;;;;;;;;;;;;;20.05;58.76;100904.09;5011502;28;1636;-59
2022/04/21 05:38:32;;;;;;;;;;;;;;;20.08;58.28;100909.22;5006142;28;1977;-58
2022/04/21 05:40:59;;;;;;;;;;;;;;;19.74;59.31;100922.13;5011877;28;1341;-53
2022/04/21 05:43:30;;;;;;;;;;;;;;;19.43;59.77;100901.50;5011552;28;1676;-58
2022/04/21 05:45:58;;;;;;;;;;;;;;;19.48;60.01;100920.72;5007204;28;1225;-59
2022/04/21 05:48:26;;;;;;;;;;;;;;;19.78;58.68;100918.19;5006533;28;1530;-58
2022/04/21 05:50:53;;;;;;;;;;;;;;;20.02;58.61;100912.44;5007784;28;1538;-55
2022/04/21 05:53:21;;;;;;;;;;;;;;;19.75;59.72;100924.66;5008689;28;1479;-60
2022/04/21 05:55:47;;;;;;;;;;;;;;;19.47;59.46;100927.06;5009647;28;1720;-55
2022/04/21 05:58:14;;;;;;;;;;;;;;;19.38;60.44;100935.94;5007766;28;1544;-60
2022/04/21 06:00:40;;;;;;;;;;;;;;;19.77;58.85;100913.78;5007667;28;1970;-56
2022/04/21 06:03:07;;;;;;;;;;;;;;;20.06;58.56;100928.13;5007799;28;1790;-58
2022/04/21 06:05:35;;;;;;;;;;;;;;;20.25;58.06;100935.38;5016727;28;1545;-64
2022/04/21 06:08:02;;;;;;;;;;;;;;;20.14;57.99;100919.38;5015855;28;1720;-59
2022/04/21 06:10:28;;;;;;;;;;;;;;;20.05;57.91;100934.50;5010982;28;1736;-56
2022/04/21 06:12:55;;;;;;;;;;;;;;;20.13;58.65;100935.63;5009272;28;1416;-56
2022/04/21 06:15:22;;;;;;;;;;;;;;;20.14;57.51;100934.66;5005128;28;1404;-55
2022/04/21 06:17:48;;;;;;;;;;;;;;;20.16;57.44;100922.78;5003560;28;1447;-60
2022/04/21 06:20:15;;;;;;;;;;;;;;;20.23;56.98;100939.19;4999111;28;1973;-55
2022/04/21 06:22:43;;;;;;;;;;;;;;;20.23;57.44;100939.19;5006247;28;1988;-59
2022/04/21 06:25:09;;;;;;;;;;;;;;;20.23;58.00;100923.94;5010507;28;1373;-60
2022/04/21 06:27:36;;;;;;;;;;;;;;;20.20;57.36;100918.00;5006747;28;1277;-55
2022/04/21 06:30:02;;;;;;;;;;;;;;;20.24;57.59;100928.31;5003810;28;1420;-56
2022/04/21 06:48:57;;;;;;;;;;;;;;;18.39;60.70;100950.59;5078242;28;1488;-33
2022/04/21 06:51:25;;;;;;;;;;;;;;;18.67;59.04;100933.91;5085853;28;1864;-33
2022/04/21 06:54:02;;;;;;;;;;;;;;;18.77;59.53;100927.78;5089619;28;1969;-34
2022/04/21 06:56:31;;;;;;;;;;;;;;;18.82;59.55;100930.94;5087436;28;1467;-33
2022/04/21 06:59:01;;;;;;;;;;;;;;;18.83;59.73;100932.66;5088829;28;1602;-33
2022/04/21 07:01:36;;;;;;;;;;;;;;;18.80;59.81;100927.53;5089374;28;1610;-33
2022/04/21 07:04:07;;;;;;;;;;;;;;;18.79;59.81;100920.47;5090511;28;1582;-35
2022/04/21 07:06:34;;;;;;;;;;;;;;;18.79;60.24;100925.81;5090355;28;1550;-33
2022/04/21 07:09:03;;;;;;;;;;;;;;;18.79;60.10;100920.47;5089278;28;1639;-34
2022/04/21 07:11:31;;;;;;;;;;;;;;;18.81;60.13;100918.53;5089955;28;1677;-34
2022/04/21 07:13:58;;;;;;;;;;;;;;;18.79;59.84;100915.97;5089624;28;1974;-34
2022/04/21 07:16:26;;;;;;;;;;;;;;;18.76;60.33;100923.38;5088983;28;1850;-34
2022/04/21 07:18:58;;;;;;;;;;;;;;;18.71;60.66;100915.75;5090310;28;1221;-34
2022/04/21 07:21:27;;;;;;;;;;;;;;;18.65;60.57;100908.22;5089311;28;1780;-34
2022/04/21 07:23:54;;;;;;;;;;;;;;;18.64;60.38;100923.47;5088896;28;1765;-34
2022/04/21 07:26:25;;;;;;;;;;;;;;;18.63;60.72;100916.38;5089282;28;1573;-34
2022/04/21 07:28:54;;;;;;;;;;;;;;;18.61;59.80;100923.72;5088486;28;1503;-34
2022/04/21 07:31:23;;;;;;;;;;;;;;;18.60;60.82;100913.13;5089793;28;1621;-34
2022/04/21 07:33:50;;;;;;;;;;;;;;;18.63;60.16;100916.38;5089896;28;1906;-34
2022/04/21 07:36:22;;;;;;;;;;;;;;;18.58;60.48;100915.94;5088582;28;1764;-34
2022/04/21 07:38:54;;;;;;;;;;;;;;;18.57;60.40;100906.19;5087657;28;1428;-34
2022/04/21 07:41:23;;;;;;;;;;;;;;;18.58;60.73;100907.91;5088600;28;1403;-34
2022/04/21 07:43:50;;;;;;;;;;;;;;;18.56;60.86;100909.88;5087450;28;1936;-34
2022/04/21 07:46:18;;;;;;;;;;;;;;;18.54;60.77;100906.44;5080220;28;1618;-34
2022/04/21 07:51:33;;;;;;;;;;;;;;;18.57;60.56;100905.34;5075182;28;1429;-34
2022/04/21 07:53:59;;;;;;;;;;;;;;;18.56;60.55;100896.47;5074996;28;1913;-34
2022/04/21 07:56:28;;;;;;;;;;;;;;;18.55;60.71;100892.09;5075011;28;1829;-34
2022/04/21 07:58:58;;;;;;;;;;;;;;;18.52;60.70;100894.16;5074771;28;1654;-34
2022/04/21 08:01:33;;;;;;;;;;;;;;;18.50;60.58;100883.56;5074604;28;1419;-34
2022/04/21 08:04:03;;;;;;;;;;;;;;;18.51;60.52;100877.25;5075838;28;1067;-34
2022/04/21 08:06:33;;;;;;;;;;;;;;;18.51;60.53;100885.28;5075254;28;1623;-34
2022/04/21 08:09:03;;;;;;;;;;;;;;;18.54;60.33;100884.19;5074504;28;1586;-34
2022/04/21 08:11:31;;;;;;;;;;;;;;;18.52;60.70;100886.97;5074557;28;1633;-34
2022/04/21 08:14:00;;;;;;;;;;;;;;;18.53;60.81;100893.19;5073594;28;1992;-34
2022/04/21 08:16:28;;;;;;;;;;;;;;;18.49;60.63;100873.88;5074417;28;1447;-34
2022/04/21 08:18:59;;;;;;;;;;;;;;;18.47;60.62;100879.34;5076060;28;2067;-34
2022/04/21 08:21:25;;;;;;;;;;;;;;;18.48;60.84;100880.19;5074411;28;1659;-34
2022/04/21 08:32:33;;;;;;;;;;;;;;;18.46;60.32;100874.97;5074271;28;2482;-34
2022/04/21 08:34:56;;;;;;;;;;;;;;;18.46;60.83;100871.44;5073766;28;1910;-34
2022/04/21 08:37:22;;;;;;;;;;;;;;;18.42;60.70;100862.81;5074342;28;1431;-34
2022/04/21 08:39:51;;;;;;;;;;;;;;;18.42;60.76;100865.50;5074444;28;1733;-34
2022/04/21 08:42:20;;;;;;;;;;;;;;;18.41;60.88;100869.16;5074143;28;1674;-34
2022/04/21 08:45:08;;;;;;;;;;;;;;;18.40;61.09;100871.94;5072254;28;1770;-34
2022/04/21 08:47:34;;;;;;;;;;;;;;;18.40;61.21;100859.44;5074504;28;1809;-34
2022/04/21 08:50:04;;;;;;;;;;;;;;;18.40;61.14;100858.56;5073833;28;1971;-34
2022/04/21 08:52:32;;;;;;;;;;;;;;;18.40;60.89;100871.94;5073504;28;1614;-34
2022/04/21 08:55:11;;;;;;;;;;;;;;;18.39;60.85;100871.09;5073785;28;1977;-34
2022/04/21 08:57:44;;;;;;;;;;;;;;;18.37;61.60;100856.16;5070672;28;1427;-34
2022/04/21 09:00:12;;;;;;;;;;;;;;;18.37;61.01;100861.50;5070589;28;1712;-34
2022/04/21 09:02:43;;;;;;;;;;;;;;;18.37;61.42;100854.31;5074962;28;1054;-34
2022/04/21 09:05:11;;;;;;;;;;;;;;;18.31;61.36;100854.00;5073018;28;1969;-34
2022/04/21 09:07:44;;;;;;;;;;;;;;;18.26;61.82;100852.56;5073716;28;1471;-34
2022/04/21 09:10:14;;;;;;;;;;;;;;;18.28;61.43;100857.75;5073550;28;1523;-34
2022/04/21 09:12:43;;;;;;;;;;;;;;;18.25;61.48;100844.66;5075482;28;1795;-34
2022/04/21 09:15:14;;;;;;;;;;;;;;;18.24;61.16;100850.97;5069840;28;1975;-34
2022/04/21 09:17:45;;;;;;;;;;;;;;;18.29;61.10;100854.97;5055905;28;1766;-34
2022/04/21 09:20:36;;;;;;;;;;;;;;;18.34;61.58;100851.88;5062518;28;1574;-34
2022/04/21 09:23:09;;;;;;;;;;;;;;;18.42;60.88;100853.94;5066956;28;1467;-33
2022/04/21 09:25:46;;;;;;;;;;;;;;;18.39;61.45;100843.50;5065351;28;1419;-33
2022/04/21 09:28:23;;;;;;;;;;;;;;;18.37;61.83;100840.09;5067658;28;1729;-33
2022/04/21 09:30:51;;;;;;;;;;;;;;;18.39;61.30;100841.66;5072685;28;1643;-33
2022/04/21 09:33:28;;;;;;;;;;;;;;;18.32;62.15;100847.66;5074370;28;1077;-34
2022/04/21 09:35:57;;;;;;;;;;;;;;;18.34;62.25;100840.34;5070659;28;1906;-34
2022/04/21 09:38:24;;;;;;;;;;;;;;;18.27;63.05;100846.22;5073542;28;1677;-34
2022/04/21 09:40:56;;;;;;;;;;;;;;;18.25;62.60;100845.50;5068977;28;1659;-34
2022/04/21 09:43:30;;;;;;;;;;;;;;;18.20;62.35;100839.66;5063165;28;1762;-35
2022/04/21 09:46:11;;;;;;;;;;;;;;;18.12;62.50;100838.63;5072260;28;1770;-34
2022/04/21 09:48:38;;;;;;;;;;;;;;;18.09;62.46;100842.41;5072847;28;1639;-34
2022/04/21 09:51:27;;;;;;;;;;;;;;;18.04;62.54;100832.06;5071412;28;1895;-34
2022/04/21 09:53:55;;;;;;;;;;;;;;;18.01;62.32;100831.50;5071858;28;1783;-34
2022/04/21 09:56:35;;;;;;;;;;;;;;;18.02;62.41;100835.84;5071561;28;1902;-34
2022/04/21 09:59:18;;;;;;;;;;;;;;;17.96;62.69;100828.34;5067272;28;1555;-34
2022/04/21 10:01:45;;;;;;;;;;;;;;;17.97;62.84;100832.72;5064570;28;1822;-34
2022/04/21 10:04:17;;;;;;;;;;;;;;;17.91;62.59;100818.03;5064602;28;1475;-34
2022/04/21 10:06:47;;;;;;;;;;;;;;;17.95;62.92;100824.81;5072310;28;1636;-34
2022/04/21 10:09:22;;;;;;;;;;;;;;;17.94;63.17;100823.09;5072266;28;1779;-36
2022/04/21 10:12:01;;;;;;;;;;;;;;;17.93;62.72;100831.28;5059927;28;1579;-34
2022/04/21 10:14:29;;;;;;;;;;;;;;;17.95;63.22;100819.47;5063487;28;2341;-34
2022/04/21 10:16:58;;;;;;;;;;;;;;;17.91;62.65;100807.31;5067991;28;1670;-33
2022/04/21 10:19:28;;;;;;;;;;;;;;;17.95;62.56;100814.13;5068218;28;1622;-34
2022/04/21 10:22:05;;;;;;;;;;;;;;;17.96;62.42;100820.31;5071784;28;1560;-34
2022/04/21 10:24:34;;;;;;;;;;;;;;;17.94;62.28;100823.09;5071469;28;1330;-34
2022/04/21 10:27:03;;;;;;;;;;;;;;;18.03;62.04;100826.88;5072928;28;1388;-34
2022/04/21 10:29:33;;;;;;;;;;;;;;;17.94;62.06;100825.78;5069574;28;1491;-34
2022/04/21 10:32:04;;;;;;;;;;;;;;;17.93;62.12;100815.22;5068735;28;1969;-34
2022/04/21 10:34:40;;;;;;;;;;;;;;;17.87;62.03;100806.72;5071713;28;1975;-34
2022/04/21 10:37:09;;;;;;;;;;;;;;;17.90;62.22;100819.00;5072465;28;1854;-35
2022/04/21 10:39:36;;;;;;;;;;;;;;;17.89;62.17;100818.16;5067184;28;1365;-34
2022/04/21 10:42:21;;;;;;;;;;;;;;;17.88;62.58;100808.41;5071180;28;1348;-37
2022/04/21 10:44:55;;;;;;;;;;;;;;;17.86;62.41;100815.72;5067607;28;2669;-35
2022/04/21 10:47:33;;;;;;;;;;;;;;;17.83;62.66;100821.34;5066177;28;1681;-35
2022/04/21 10:50:13;;;;;;;;;;;;;;;17.79;62.80;100816.34;5071331;28;1545;-34
2022/04/21 10:58:47;;;;;;;;;;;;;;;17.81;62.60;100801.00;5067487;28;1448;-35
2022/04/21 11:01:17;;;;;;;;;;;;;;;17.81;62.62;100823.25;5072077;28;1480;-35
2022/04/21 11:03:45;;;;;;;;;;;;;;;17.77;62.75;100818.28;5069724;28;1534;-34
2022/04/21 11:06:16;;;;;;;;;;;;;;;17.73;62.69;100825.72;5071848;28;1776;-34
2022/04/21 11:08:44;;;;;;;;;;;;;;;17.73;62.81;100809.66;5071885;28;1292;-34
2022/04/21 11:11:11;;;;;;;;;;;;;;;17.71;62.75;100800.91;5066716;28;1623;-34
2022/04/21 11:13:54;;;;;;;;;;;;;;;17.71;62.42;100806.25;5071049;28;1894;-34
2022/04/21 11:16:38;;;;;;;;;;;;;;;17.73;62.67;100811.50;5071265;28;1906;-34
2022/04/21 11:19:28;;;;;;;;;;;;;;;17.70;62.71;100796.53;5069742;28;1918;-34
2022/04/21 11:22:04;;;;;;;;;;;;;;;17.67;62.67;100794.97;5066419;28;2552;-35
2022/04/21 11:24:45;;;;;;;;;;;;;;;17.68;62.90;100787.78;5076047;28;1803;-34
2022/04/21 11:27:13;;;;;;;;;;;;;;;17.68;62.83;100801.16;5071080;28;1364;-35
2022/04/21 11:29:40;;;;;;;;;;;;;;;17.67;62.80;100815.53;5076535;28;1009;-34
2022/04/21 11:32:14;;;;;;;;;;;;;;;17.64;62.86;100805.06;5075347;28;1761;-34
2022/04/21 11:34:45;;;;;;;;;;;;;;;17.64;62.96;100800.56;5074925;28;1439;-34
2022/04/21 11:37:20;;;;;;;;;;;;;;;17.64;62.74;100794.38;5072259;28;1527;-34
2022/04/21 11:39:46;;;;;;;;;;;;;;;17.61;62.64;100794.63;5071054;28;1559;-34
2022/04/21 11:42:33;;;;;;;;;;;;;;;17.62;62.96;100769.56;5074306;28;1553;-34
2022/04/21 11:45:02;;;;;;;;;;;;;;;17.58;63.38;100774.31;5064607;28;1463;-34
2022/04/21 11:47:32;;;;;;;;;;;;;;;17.61;62.83;100773.25;5075547;28;1567;-34
2022/04/21 11:50:00;;;;;;;;;;;;;;;17.60;62.81;100771.53;5074997;28;1625;-34
2022/04/21 11:52:32;;;;;;;;;;;;;;;17.61;62.89;100762.53;5073485;28;1746;-34
2022/04/21 11:55:04;;;;;;;;;;;;;;;17.59;62.83;100743.09;5072741;28;1977;-34
2022/04/21 11:57:50;;;;;;;;;;;;;;;17.62;62.83;100753.53;5071906;28;1482;-34
2022/04/21 12:06:27;;;;;;;;;;;;;;;17.62;62.70;100742.84;5073599;28;1646;-34
2022/04/21 12:08:52;;;;;;;;;;;;;;;17.58;63.03;100744.91;5069060;28;1571;-34
2022/04/21 12:11:23;;;;;;;;;;;;;;;17.58;62.98;100736.03;5072395;28;1756;-34
2022/04/21 12:13:51;;;;;;;;;;;;;;;17.58;62.80;100746.75;5070274;28;1428;-34
2022/04/21 12:16:43;;;;;;;;;;;;;;;17.58;62.94;100744.06;5074525;28;1988;-34
2022/04/21 12:22:05;;;;;;;;;;;;;;;17.58;62.87;100730.69;5068690;28;1825;-34
2022/04/21 12:24:47;;;;;;;;;;;;;;;17.57;62.92;100723.66;5071559;28;1637;-35
2022/04/21 12:27:23;;;;;;;;;;;;;;;17.60;62.93;100720.72;5073398;28;1416;-34
2022/04/21 12:30:07;;;;;;;;;;;;;;;17.58;63.05;100722.66;5062746;28;1389;-34
2022/04/21 12:32:49;;;;;;;;;;;;;;;17.61;62.65;100738.47;5061872;28;1575;-34
2022/04/21 12:35:16;;;;;;;;;;;;;;;17.60;62.89;100736.75;5060178;28;1902;-35
2022/04/21 12:37:44;;;;;;;;;;;;;;;17.68;62.68;100724.44;5063118;28;1690;-35
2022/04/21 12:40:11;;;;;;;;;;;;;;;17.79;62.39;100718.22;5073996;28;1316;-34
2022/04/21 12:42:52;;;;;;;;;;;;;;;17.76;62.78;100726.47;5073655;28;1559;-34
2022/04/21 12:48:03;;;;;;;;;;;;;;;18.28;62.07;100716.75;5067612;28;1617;-35
2022/04/21 12:50:30;;;;;;;;;;;;;;;18.86;60.71;100702.81;5070436;28;1791;-34
2022/04/21 12:52:59;;;;;;;;;;;;;;;19.35;60.01;100708.25;5072163;28;1570;-34
2022/04/21 12:55:30;;;;;;;;;;;;;;;19.79;58.76;100694.47;5073426;28;1894;-34
2022/04/21 12:58:09;;;;;;;;;;;;;;;19.62;59.88;100678.09;5071351;28;1799;-35
2022/04/21 13:00:45;;;;;;;;;;;;;;;19.86;59.46;100682.19;5067718;28;1436;-35
2022/04/21 13:03:14;;;;;;;;;;;;;;;20.41;57.04;100694.91;5072909;28;1515;-35
2022/04/21 13:05:49;;;;;;;;;;;;;;;20.36;57.98;100679.25;5067985;28;1994;-34
2022/04/21 13:08:18;;;;;;;;;;;;;;;20.25;57.50;100693.72;5072345;28;1992;-35
2022/04/21 13:10:45;;;;;;;;;;;;;;;19.66;59.03;100700.94;5071783;28;1408;-35
2022/04/21 13:13:17;;;;;;;;;;;;;;;19.66;59.39;100700.13;5072033;28;1419;-35
2022/04/21 13:15:50;;;;;;;;;;;;;;;20.03;59.69;100688.66;5068860;28;1910;-35
2022/04/21 13:18:20;;;;;;;;;;;;;;;19.92;59.61;100699.56;5069484;28;1084;-35
2022/04/21 13:23:40;;;;;;;;;;;;;;;19.95;58.72;100699.25;5068475;28;1848;-35
2022/04/21 13:26:07;;;;;;;;;;;;;;;19.88;59.79;100692.78;5072820;28;1483;-35
2022/04/21 13:28:39;;;;;;;;;;;;;;;19.99;59.35;100711.41;5073378;28;1670;-35
2022/04/21 13:33:52;;;;;;;;;;;;;;;20.15;58.97;100684.81;5074184;28;901;-34
2022/04/21 13:36:18;;;;;;;;;;;;;;;19.98;58.67;100674.84;5072707;28;1994;-34
2022/04/21 13:38:48;;;;;;;;;;;;;;;19.96;59.62;100691.06;5072127;28;1598;-34
2022/04/21 13:41:15;;;;;;;;;;;;;;;20.04;58.87;100682.31;5072932;28;1491;-34
2022/04/21 13:43:45;;;;;;;;;;;;;;;20.02;59.18;100695.03;5071908;28;1411;-35
2022/04/21 13:46:13;;;;;;;;;;;;;;;20.01;59.81;100685.25;5073014;28;1681;-35
2022/04/21 13:48:39;;;;;;;;;;;;;;;20.08;58.85;100694.44;5074131;28;1079;-34
2022/04/21 13:51:07;;;;;;;;;;;;;;;20.19;59.45;100702.34;5070958;28;1927;-34
2022/04/21 13:53:36;;;;;;;;;;;;;;;20.15;58.91;100700.06;5071852;28;1685;-34
2022/04/21 13:56:06;;;;;;;;;;;;;;;20.25;58.21;100701.75;5071675;28;1945;-34
2022/04/21 13:58:33;;;;;;;;;;;;;;;20.35;58.00;100707.13;5072437;28;1465;-34
2022/04/21 14:01:03;;;;;;;;;;;;;;;20.34;58.87;100710.78;5072418;28;1520;-34
2022/04/21 14:03:36;;;;;;;;;;;;;;;20.32;58.12;100699.34;5073573;28;1094;-35
2022/04/21 14:06:07;;;;;;;;;;;;;;;20.24;58.21;100696.53;5071720;28;1633;-34
2022/04/21 14:08:35;;;;;;;;;;;;;;;20.18;59.51;100668.41;5072557;28;1599;-35
2022/04/21 14:11:08;;;;;;;;;;;;;;;20.25;58.09;100691.03;5072938;28;1627;-34
2022/04/21 14:13:36;;;;;;;;;;;;;;;20.25;58.25;100691.03;5072619;28;1627;-35
2022/04/21 14:16:08;;;;;;;;;;;;;;;20.20;59.36;100681.69;5070170;28;1969;-35
2022/04/21 14:21:18;;;;;;;;;;;;;;;20.20;58.12;100701.34;5069479;28;2501;-35
2022/04/21 14:23:47;;;;;;;;;;;;;;;20.19;58.34;100691.59;5067980;28;1636;-34
2022/04/21 14:26:15;;;;;;;;;;;;;;;20.17;58.18;100690.88;5072366;28;1491;-34
2022/04/21 14:28:42;;;;;;;;;;;;;;;20.14;58.19;100683.13;5072360;28;1531;-34
2022/04/21 14:31:15;;;;;;;;;;;;;;;20.21;59.01;100686.06;5072215;28;1536;-35
2022/04/21 14:33:42;;;;;;;;;;;;;;;20.15;59.33;100708.13;5073241;28;1130;-35
2022/04/21 14:36:10;;;;;;;;;;;;;;;20.29;58.00;100707.66;5072326;28;1882;-34
2022/04/21 14:44:07;;;;;;;;;;;;;;;20.15;58.40;100690.16;5068694;28;1661;-34
2022/04/21 14:46:38;;;;;;;;;;;;;;;20.10;59.12;100687.09;5071883;28;1479;-34
2022/04/21 14:49:08;;;;;;;;;;;;;;;20.08;58.36;100683.72;5072950;28;1594;-35
2022/04/21 14:51:38;;;;;;;;;;;;;;;20.14;58.56;100709.13;5072564;28;1650;-34
2022/04/21 14:54:06;;;;;;;;;;;;;;;20.06;59.06;100693.75;5071213;28;2106;-35
2022/04/21 14:56:42;;;;;;;;;;;;;;;20.14;58.09;100699.22;5073242;28;1902;-35
2022/04/21 14:59:22;;;;;;;;;;;;;;;20.08;59.13;100683.72;5073523;28;1829;-35
2022/04/21 15:01:52;;;;;;;;;;;;;;;20.15;58.23;100705.44;5072645;28;1595;-35
2022/04/21 15:04:24;;;;;;;;;;;;;;;20.06;58.41;100702.63;5075282;28;1427;-35
2022/04/21 15:06:53;;;;;;;;;;;;;;;20.07;58.36;100690.06;5076408;28;1614;-36
2022/04/21 15:12:08;;;;;;;;;;;;;;;20.13;58.21;100697.53;5076316;28;1830;-35
2022/04/21 15:14:34;;;;;;;;;;;;;;;20.12;58.09;100690.47;5076026;28;1358;-35
2022/04/21 15:17:14;;;;;;;;;;;;;;;20.07;59.07;100687.38;5075080;28;1910;-35
2022/04/21 15:19:46;;;;;;;;;;;;;;;20.01;58.28;100682.56;5073510;28;1568;-35